<?xml version="1.0" encoding="UTF-8" standalone="no" ?>
<gpx xmlns="http://www.topografix.com/GPX/1/1" xmlns:xsi="http://www.w3.org/2001/XMLSchema-instance" xsi:schemaLocation="http://www.topografix.com/GPX/1/1 http://www.topografix.com/GPX/1/1/gpx.xsd" version="1.1" creator="VisuGPX - https://www.visugpx.com">
  <metadata>
    <name>Etangs de bievre</name>
    <desc><![CDATA[Rando en boucle depuis Versailles]]></desc>
  </metadata>
  <wpt lat="48.7795" lon="2.06717">
    <ele>141</ele>
    <name><![CDATA[Source de la Bièvre]]></name>
  </wpt>
  <trk>
    <name><![CDATA[20190512194147-mZccP]]></name>
    <trkseg>
      <trkpt lat="48.78006" lon="2.12462">
        <ele>168</ele>
        <time>2019-05-12T13:35:55.000Z</time>
      </trkpt>
      <trkpt lat="48.78006" lon="2.12462">
        <ele>168</ele>
        <time>2019-05-12T13:35:55.000Z</time>
      </trkpt>
      <trkpt lat="48.78005" lon="2.12476">
        <ele>182</ele>
        <time>2019-05-12T13:37:50.000Z</time>
      </trkpt>
      <trkpt lat="48.78005" lon="2.12476">
        <ele>182</ele>
        <time>2019-05-12T13:37:51.000Z</time>
      </trkpt>
      <trkpt lat="48.78005" lon="2.12477">
        <ele>184</ele>
        <time>2019-05-12T13:38:01.000Z</time>
      </trkpt>
      <trkpt lat="48.78009" lon="2.12489">
        <ele>194</ele>
        <time>2019-05-12T13:41:54.000Z</time>
      </trkpt>
      <trkpt lat="48.7801" lon="2.12491">
        <ele>194</ele>
        <time>2019-05-12T13:41:55.000Z</time>
      </trkpt>
      <trkpt lat="48.78013" lon="2.12496">
        <ele>194</ele>
        <time>2019-05-12T13:42:01.000Z</time>
      </trkpt>
      <trkpt lat="48.78014" lon="2.12496">
        <ele>195</ele>
        <time>2019-05-12T13:42:17.000Z</time>
      </trkpt>
      <trkpt lat="48.78014" lon="2.12496">
        <ele>195</ele>
        <time>2019-05-12T13:42:18.000Z</time>
      </trkpt>
      <trkpt lat="48.78028" lon="2.12507">
        <ele>196</ele>
        <time>2019-05-12T13:42:26.000Z</time>
      </trkpt>
      <trkpt lat="48.78038" lon="2.1252">
        <ele>197</ele>
        <time>2019-05-12T13:42:40.000Z</time>
      </trkpt>
      <trkpt lat="48.78045" lon="2.12536">
        <ele>198</ele>
        <time>2019-05-12T13:42:54.000Z</time>
      </trkpt>
      <trkpt lat="48.78053" lon="2.12551">
        <ele>198</ele>
        <time>2019-05-12T13:43:11.000Z</time>
      </trkpt>
      <trkpt lat="48.78058" lon="2.12559">
        <ele>199</ele>
        <time>2019-05-12T13:43:22.000Z</time>
      </trkpt>
      <trkpt lat="48.78064" lon="2.12568">
        <ele>199</ele>
        <time>2019-05-12T13:43:30.000Z</time>
      </trkpt>
      <trkpt lat="48.78068" lon="2.12572">
        <ele>199</ele>
        <time>2019-05-12T13:43:34.000Z</time>
      </trkpt>
      <trkpt lat="48.78074" lon="2.12579">
        <ele>199</ele>
        <time>2019-05-12T13:43:39.000Z</time>
      </trkpt>
      <trkpt lat="48.78078" lon="2.12585">
        <ele>199</ele>
        <time>2019-05-12T13:43:46.000Z</time>
      </trkpt>
      <trkpt lat="48.78083" lon="2.12593">
        <ele>199</ele>
        <time>2019-05-12T13:43:52.000Z</time>
      </trkpt>
      <trkpt lat="48.7809" lon="2.12611">
        <ele>199</ele>
        <time>2019-05-12T13:44:02.000Z</time>
      </trkpt>
      <trkpt lat="48.78098" lon="2.12622">
        <ele>200</ele>
        <time>2019-05-12T13:44:19.000Z</time>
      </trkpt>
      <trkpt lat="48.78099" lon="2.12623">
        <ele>200</ele>
        <time>2019-05-12T13:44:21.000Z</time>
      </trkpt>
      <trkpt lat="48.78101" lon="2.12624">
        <ele>200</ele>
        <time>2019-05-12T13:44:31.000Z</time>
      </trkpt>
      <trkpt lat="48.78103" lon="2.12625">
        <ele>200</ele>
        <time>2019-05-12T13:44:32.000Z</time>
      </trkpt>
      <trkpt lat="48.78104" lon="2.12626">
        <ele>200</ele>
        <time>2019-05-12T13:44:35.000Z</time>
      </trkpt>
      <trkpt lat="48.78109" lon="2.12629">
        <ele>200</ele>
        <time>2019-05-12T13:44:37.000Z</time>
      </trkpt>
      <trkpt lat="48.78113" lon="2.12633">
        <ele>200</ele>
        <time>2019-05-12T13:44:39.000Z</time>
      </trkpt>
      <trkpt lat="48.78116" lon="2.12637">
        <ele>200</ele>
        <time>2019-05-12T13:44:41.000Z</time>
      </trkpt>
      <trkpt lat="48.78119" lon="2.12641">
        <ele>200</ele>
        <time>2019-05-12T13:44:43.000Z</time>
      </trkpt>
      <trkpt lat="48.78129" lon="2.12655">
        <ele>200</ele>
        <time>2019-05-12T13:44:49.000Z</time>
      </trkpt>
      <trkpt lat="48.78137" lon="2.12669">
        <ele>200</ele>
        <time>2019-05-12T13:45:02.000Z</time>
      </trkpt>
      <trkpt lat="48.78147" lon="2.12678">
        <ele>200</ele>
        <time>2019-05-12T13:45:20.000Z</time>
      </trkpt>
      <trkpt lat="48.78156" lon="2.12689">
        <ele>200</ele>
        <time>2019-05-12T13:45:30.000Z</time>
      </trkpt>
      <trkpt lat="48.78162" lon="2.12698">
        <ele>200</ele>
        <time>2019-05-12T13:45:42.000Z</time>
      </trkpt>
      <trkpt lat="48.78165" lon="2.12703">
        <ele>200</ele>
        <time>2019-05-12T13:45:49.000Z</time>
      </trkpt>
      <trkpt lat="48.7817" lon="2.12708">
        <ele>200</ele>
        <time>2019-05-12T13:45:52.000Z</time>
      </trkpt>
      <trkpt lat="48.78179" lon="2.12718">
        <ele>200</ele>
        <time>2019-05-12T13:45:56.000Z</time>
      </trkpt>
      <trkpt lat="48.78188" lon="2.12731">
        <ele>200</ele>
        <time>2019-05-12T13:46:11.000Z</time>
      </trkpt>
      <trkpt lat="48.78191" lon="2.12736">
        <ele>200</ele>
        <time>2019-05-12T13:46:15.000Z</time>
      </trkpt>
      <trkpt lat="48.78192" lon="2.12737">
        <ele>200</ele>
        <time>2019-05-12T13:46:17.000Z</time>
      </trkpt>
      <trkpt lat="48.78193" lon="2.12737">
        <ele>200</ele>
        <time>2019-05-12T13:46:19.000Z</time>
      </trkpt>
      <trkpt lat="48.78203" lon="2.1274">
        <ele>200</ele>
        <time>2019-05-12T13:46:21.000Z</time>
      </trkpt>
      <trkpt lat="48.78207" lon="2.12743">
        <ele>200</ele>
        <time>2019-05-12T13:46:25.000Z</time>
      </trkpt>
      <trkpt lat="48.78209" lon="2.12743">
        <ele>200</ele>
        <time>2019-05-12T13:46:28.000Z</time>
      </trkpt>
      <trkpt lat="48.78215" lon="2.12748">
        <ele>201</ele>
        <time>2019-05-12T13:46:37.000Z</time>
      </trkpt>
      <trkpt lat="48.78223" lon="2.12759">
        <ele>201</ele>
        <time>2019-05-12T13:46:43.000Z</time>
      </trkpt>
      <trkpt lat="48.78234" lon="2.12768">
        <ele>201</ele>
        <time>2019-05-12T13:46:53.000Z</time>
      </trkpt>
      <trkpt lat="48.78241" lon="2.12777">
        <ele>201</ele>
        <time>2019-05-12T13:47:03.000Z</time>
      </trkpt>
      <trkpt lat="48.7825" lon="2.12791">
        <ele>201</ele>
        <time>2019-05-12T13:47:15.000Z</time>
      </trkpt>
      <trkpt lat="48.78257" lon="2.12807">
        <ele>201</ele>
        <time>2019-05-12T13:47:28.000Z</time>
      </trkpt>
      <trkpt lat="48.78262" lon="2.12818">
        <ele>201</ele>
        <time>2019-05-12T13:47:37.000Z</time>
      </trkpt>
      <trkpt lat="48.78268" lon="2.12828">
        <ele>201</ele>
        <time>2019-05-12T13:47:43.000Z</time>
      </trkpt>
      <trkpt lat="48.78272" lon="2.12835">
        <ele>201</ele>
        <time>2019-05-12T13:47:47.000Z</time>
      </trkpt>
      <trkpt lat="48.78275" lon="2.12839">
        <ele>201</ele>
        <time>2019-05-12T13:47:51.000Z</time>
      </trkpt>
      <trkpt lat="48.78276" lon="2.12839">
        <ele>201</ele>
        <time>2019-05-12T13:47:53.000Z</time>
      </trkpt>
      <trkpt lat="48.78285" lon="2.12842">
        <ele>201</ele>
        <time>2019-05-12T13:47:56.000Z</time>
      </trkpt>
      <trkpt lat="48.7829" lon="2.12841">
        <ele>201</ele>
        <time>2019-05-12T13:48:01.000Z</time>
      </trkpt>
      <trkpt lat="48.78296" lon="2.12838">
        <ele>201</ele>
        <time>2019-05-12T13:48:07.000Z</time>
      </trkpt>
      <trkpt lat="48.78301" lon="2.12833">
        <ele>201</ele>
        <time>2019-05-12T13:48:12.000Z</time>
      </trkpt>
      <trkpt lat="48.78306" lon="2.12826">
        <ele>202</ele>
        <time>2019-05-12T13:48:17.000Z</time>
      </trkpt>
      <trkpt lat="48.78308" lon="2.12824">
        <ele>202</ele>
        <time>2019-05-12T13:48:20.000Z</time>
      </trkpt>
      <trkpt lat="48.78309" lon="2.12822">
        <ele>202</ele>
        <time>2019-05-12T13:48:23.000Z</time>
      </trkpt>
      <trkpt lat="48.7831" lon="2.12821">
        <ele>202</ele>
        <time>2019-05-12T13:48:26.000Z</time>
      </trkpt>
      <trkpt lat="48.78311" lon="2.1282">
        <ele>202</ele>
        <time>2019-05-12T13:48:30.000Z</time>
      </trkpt>
      <trkpt lat="48.78312" lon="2.1282">
        <ele>202</ele>
        <time>2019-05-12T13:48:32.000Z</time>
      </trkpt>
      <trkpt lat="48.78312" lon="2.12819">
        <ele>202</ele>
        <time>2019-05-12T13:48:34.000Z</time>
      </trkpt>
      <trkpt lat="48.78312" lon="2.12819">
        <ele>202</ele>
        <time>2019-05-12T13:48:36.000Z</time>
      </trkpt>
      <trkpt lat="48.78313" lon="2.12819">
        <ele>202</ele>
        <time>2019-05-12T13:48:39.000Z</time>
      </trkpt>
      <trkpt lat="48.78313" lon="2.12819">
        <ele>202</ele>
        <time>2019-05-12T13:48:39.000Z</time>
      </trkpt>
      <trkpt lat="48.78314" lon="2.12819">
        <ele>202</ele>
        <time>2019-05-12T13:48:39.000Z</time>
      </trkpt>
      <trkpt lat="48.78314" lon="2.12819">
        <ele>202</ele>
        <time>2019-05-12T13:48:39.000Z</time>
      </trkpt>
      <trkpt lat="48.78314" lon="2.12819">
        <ele>202</ele>
        <time>2019-05-12T13:48:40.000Z</time>
      </trkpt>
      <trkpt lat="48.78316" lon="2.12817">
        <ele>202</ele>
        <time>2019-05-12T13:48:43.000Z</time>
      </trkpt>
      <trkpt lat="48.78317" lon="2.12816">
        <ele>202</ele>
        <time>2019-05-12T13:48:46.000Z</time>
      </trkpt>
      <trkpt lat="48.78319" lon="2.12814">
        <ele>202</ele>
        <time>2019-05-12T13:48:49.000Z</time>
      </trkpt>
      <trkpt lat="48.78321" lon="2.12812">
        <ele>202</ele>
        <time>2019-05-12T13:48:53.000Z</time>
      </trkpt>
      <trkpt lat="48.78322" lon="2.12811">
        <ele>202</ele>
        <time>2019-05-12T13:48:55.000Z</time>
      </trkpt>
      <trkpt lat="48.78322" lon="2.12811">
        <ele>203</ele>
        <time>2019-05-12T13:48:57.000Z</time>
      </trkpt>
      <trkpt lat="48.78322" lon="2.12811">
        <ele>203</ele>
        <time>2019-05-12T13:48:59.000Z</time>
      </trkpt>
      <trkpt lat="48.78322" lon="2.12811">
        <ele>203</ele>
        <time>2019-05-12T13:49:02.000Z</time>
      </trkpt>
      <trkpt lat="48.78322" lon="2.1281">
        <ele>203</ele>
        <time>2019-05-12T13:49:03.000Z</time>
      </trkpt>
      <trkpt lat="48.78323" lon="2.12809">
        <ele>203</ele>
        <time>2019-05-12T13:49:05.000Z</time>
      </trkpt>
      <trkpt lat="48.78336" lon="2.128">
        <ele>203</ele>
        <time>2019-05-12T13:49:10.000Z</time>
      </trkpt>
      <trkpt lat="48.78346" lon="2.12786">
        <ele>203</ele>
        <time>2019-05-12T13:49:19.000Z</time>
      </trkpt>
      <trkpt lat="48.78351" lon="2.12781">
        <ele>203</ele>
        <time>2019-05-12T13:49:27.000Z</time>
      </trkpt>
      <trkpt lat="48.78353" lon="2.12779">
        <ele>203</ele>
        <time>2019-05-12T13:49:30.000Z</time>
      </trkpt>
      <trkpt lat="48.78362" lon="2.12769">
        <ele>203</ele>
        <time>2019-05-12T13:49:33.000Z</time>
      </trkpt>
      <trkpt lat="48.78367" lon="2.12765">
        <ele>203</ele>
        <time>2019-05-12T13:49:41.000Z</time>
      </trkpt>
      <trkpt lat="48.78368" lon="2.12764">
        <ele>203</ele>
        <time>2019-05-12T13:49:42.000Z</time>
      </trkpt>
      <trkpt lat="48.78369" lon="2.12765">
        <ele>203</ele>
        <time>2019-05-12T13:49:43.000Z</time>
      </trkpt>
      <trkpt lat="48.7837" lon="2.12765">
        <ele>203</ele>
        <time>2019-05-12T13:49:44.000Z</time>
      </trkpt>
      <trkpt lat="48.78371" lon="2.12766">
        <ele>203</ele>
        <time>2019-05-12T13:49:45.000Z</time>
      </trkpt>
      <trkpt lat="48.78371" lon="2.12766">
        <ele>203</ele>
        <time>2019-05-12T13:49:45.000Z</time>
      </trkpt>
      <trkpt lat="48.78372" lon="2.12766">
        <ele>203</ele>
        <time>2019-05-12T13:49:45.000Z</time>
      </trkpt>
      <trkpt lat="48.78373" lon="2.12766">
        <ele>203</ele>
        <time>2019-05-12T13:49:45.000Z</time>
      </trkpt>
      <trkpt lat="48.78373" lon="2.12767">
        <ele>203</ele>
        <time>2019-05-12T13:49:46.000Z</time>
      </trkpt>
      <trkpt lat="48.78375" lon="2.12767">
        <ele>204</ele>
        <time>2019-05-12T13:49:48.000Z</time>
      </trkpt>
      <trkpt lat="48.78376" lon="2.12767">
        <ele>204</ele>
        <time>2019-05-12T13:49:51.000Z</time>
      </trkpt>
      <trkpt lat="48.78378" lon="2.12768">
        <ele>204</ele>
        <time>2019-05-12T13:49:54.000Z</time>
      </trkpt>
      <trkpt lat="48.7838" lon="2.12769">
        <ele>204</ele>
        <time>2019-05-12T13:49:57.000Z</time>
      </trkpt>
      <trkpt lat="48.78382" lon="2.12769">
        <ele>204</ele>
        <time>2019-05-12T13:49:58.000Z</time>
      </trkpt>
      <trkpt lat="48.78384" lon="2.1277">
        <ele>204</ele>
        <time>2019-05-12T13:50:00.000Z</time>
      </trkpt>
      <trkpt lat="48.78385" lon="2.1277">
        <ele>204</ele>
        <time>2019-05-12T13:50:02.000Z</time>
      </trkpt>
      <trkpt lat="48.78387" lon="2.12771">
        <ele>204</ele>
        <time>2019-05-12T13:50:04.000Z</time>
      </trkpt>
      <trkpt lat="48.78388" lon="2.12771">
        <ele>204</ele>
        <time>2019-05-12T13:50:05.000Z</time>
      </trkpt>
      <trkpt lat="48.78389" lon="2.12772">
        <ele>204</ele>
        <time>2019-05-12T13:50:06.000Z</time>
      </trkpt>
      <trkpt lat="48.78389" lon="2.12772">
        <ele>204</ele>
        <time>2019-05-12T13:50:07.000Z</time>
      </trkpt>
      <trkpt lat="48.7839" lon="2.12772">
        <ele>204</ele>
        <time>2019-05-12T13:50:08.000Z</time>
      </trkpt>
      <trkpt lat="48.78391" lon="2.12773">
        <ele>204</ele>
        <time>2019-05-12T13:50:08.000Z</time>
      </trkpt>
      <trkpt lat="48.78392" lon="2.12773">
        <ele>204</ele>
        <time>2019-05-12T13:50:09.000Z</time>
      </trkpt>
      <trkpt lat="48.78394" lon="2.12774">
        <ele>204</ele>
        <time>2019-05-12T13:50:10.000Z</time>
      </trkpt>
      <trkpt lat="48.78396" lon="2.12775">
        <ele>204</ele>
        <time>2019-05-12T13:50:11.000Z</time>
      </trkpt>
      <trkpt lat="48.784" lon="2.12776">
        <ele>204</ele>
        <time>2019-05-12T13:50:14.000Z</time>
      </trkpt>
      <trkpt lat="48.78403" lon="2.12777">
        <ele>204</ele>
        <time>2019-05-12T13:50:17.000Z</time>
      </trkpt>
      <trkpt lat="48.7841" lon="2.1278">
        <ele>204</ele>
        <time>2019-05-12T13:50:19.000Z</time>
      </trkpt>
      <trkpt lat="48.78418" lon="2.12783">
        <ele>204</ele>
        <time>2019-05-12T13:50:26.000Z</time>
      </trkpt>
      <trkpt lat="48.78423" lon="2.12786">
        <ele>205</ele>
        <time>2019-05-12T13:50:32.000Z</time>
      </trkpt>
      <trkpt lat="48.78434" lon="2.12792">
        <ele>205</ele>
        <time>2019-05-12T13:50:41.000Z</time>
      </trkpt>
      <trkpt lat="48.78442" lon="2.12797">
        <ele>205</ele>
        <time>2019-05-12T13:50:50.000Z</time>
      </trkpt>
      <trkpt lat="48.7845" lon="2.12801">
        <ele>205</ele>
        <time>2019-05-12T13:50:58.000Z</time>
      </trkpt>
      <trkpt lat="48.78456" lon="2.12804">
        <ele>205</ele>
        <time>2019-05-12T13:51:04.000Z</time>
      </trkpt>
      <trkpt lat="48.78468" lon="2.12812">
        <ele>205</ele>
        <time>2019-05-12T13:51:11.000Z</time>
      </trkpt>
      <trkpt lat="48.78479" lon="2.12817">
        <ele>206</ele>
        <time>2019-05-12T13:51:25.000Z</time>
      </trkpt>
      <trkpt lat="48.78484" lon="2.12824">
        <ele>206</ele>
        <time>2019-05-12T13:51:39.000Z</time>
      </trkpt>
      <trkpt lat="48.78494" lon="2.12831">
        <ele>206</ele>
        <time>2019-05-12T13:51:47.000Z</time>
      </trkpt>
      <trkpt lat="48.78506" lon="2.12838">
        <ele>206</ele>
        <time>2019-05-12T13:51:50.000Z</time>
      </trkpt>
      <trkpt lat="48.78521" lon="2.12843">
        <ele>207</ele>
        <time>2019-05-12T13:51:56.000Z</time>
      </trkpt>
      <trkpt lat="48.78534" lon="2.12846">
        <ele>207</ele>
        <time>2019-05-12T13:52:04.000Z</time>
      </trkpt>
      <trkpt lat="48.7854" lon="2.12842">
        <ele>207</ele>
        <time>2019-05-12T13:52:11.000Z</time>
      </trkpt>
      <trkpt lat="48.78546" lon="2.12836">
        <ele>207</ele>
        <time>2019-05-12T13:52:19.000Z</time>
      </trkpt>
      <trkpt lat="48.7855" lon="2.12829">
        <ele>207</ele>
        <time>2019-05-12T13:52:24.000Z</time>
      </trkpt>
      <trkpt lat="48.78552" lon="2.12821">
        <ele>208</ele>
        <time>2019-05-12T13:52:30.000Z</time>
      </trkpt>
      <trkpt lat="48.78553" lon="2.12817">
        <ele>208</ele>
        <time>2019-05-12T13:52:32.000Z</time>
      </trkpt>
      <trkpt lat="48.78553" lon="2.12813">
        <ele>208</ele>
        <time>2019-05-12T13:52:35.000Z</time>
      </trkpt>
      <trkpt lat="48.78554" lon="2.12809">
        <ele>208</ele>
        <time>2019-05-12T13:52:37.000Z</time>
      </trkpt>
      <trkpt lat="48.78555" lon="2.12805">
        <ele>208</ele>
        <time>2019-05-12T13:52:40.000Z</time>
      </trkpt>
      <trkpt lat="48.78556" lon="2.12801">
        <ele>208</ele>
        <time>2019-05-12T13:52:42.000Z</time>
      </trkpt>
      <trkpt lat="48.78557" lon="2.12796">
        <ele>208</ele>
        <time>2019-05-12T13:52:45.000Z</time>
      </trkpt>
      <trkpt lat="48.78558" lon="2.12791">
        <ele>208</ele>
        <time>2019-05-12T13:52:48.000Z</time>
      </trkpt>
      <trkpt lat="48.7856" lon="2.12785">
        <ele>208</ele>
        <time>2019-05-12T13:52:51.000Z</time>
      </trkpt>
      <trkpt lat="48.78561" lon="2.12781">
        <ele>208</ele>
        <time>2019-05-12T13:52:54.000Z</time>
      </trkpt>
      <trkpt lat="48.78561" lon="2.12776">
        <ele>209</ele>
        <time>2019-05-12T13:52:57.000Z</time>
      </trkpt>
      <trkpt lat="48.78562" lon="2.12772">
        <ele>209</ele>
        <time>2019-05-12T13:53:00.000Z</time>
      </trkpt>
      <trkpt lat="48.78563" lon="2.12768">
        <ele>209</ele>
        <time>2019-05-12T13:53:03.000Z</time>
      </trkpt>
      <trkpt lat="48.78563" lon="2.12765">
        <ele>209</ele>
        <time>2019-05-12T13:53:06.000Z</time>
      </trkpt>
      <trkpt lat="48.78564" lon="2.12761">
        <ele>209</ele>
        <time>2019-05-12T13:53:09.000Z</time>
      </trkpt>
      <trkpt lat="48.78564" lon="2.12758">
        <ele>209</ele>
        <time>2019-05-12T13:53:12.000Z</time>
      </trkpt>
      <trkpt lat="48.78565" lon="2.12755">
        <ele>209</ele>
        <time>2019-05-12T13:53:16.000Z</time>
      </trkpt>
      <trkpt lat="48.78565" lon="2.12753">
        <ele>209</ele>
        <time>2019-05-12T13:53:18.000Z</time>
      </trkpt>
      <trkpt lat="48.78565" lon="2.1275">
        <ele>209</ele>
        <time>2019-05-12T13:53:20.000Z</time>
      </trkpt>
      <trkpt lat="48.78565" lon="2.12748">
        <ele>209</ele>
        <time>2019-05-12T13:53:22.000Z</time>
      </trkpt>
      <trkpt lat="48.78566" lon="2.12746">
        <ele>209</ele>
        <time>2019-05-12T13:53:24.000Z</time>
      </trkpt>
      <trkpt lat="48.78567" lon="2.12737">
        <ele>209</ele>
        <time>2019-05-12T13:53:28.000Z</time>
      </trkpt>
      <trkpt lat="48.78569" lon="2.12725">
        <ele>210</ele>
        <time>2019-05-12T13:53:34.000Z</time>
      </trkpt>
      <trkpt lat="48.78574" lon="2.12704">
        <ele>210</ele>
        <time>2019-05-12T13:53:39.000Z</time>
      </trkpt>
      <trkpt lat="48.7858" lon="2.12689">
        <ele>210</ele>
        <time>2019-05-12T13:53:55.000Z</time>
      </trkpt>
      <trkpt lat="48.78584" lon="2.1268">
        <ele>210</ele>
        <time>2019-05-12T13:54:05.000Z</time>
      </trkpt>
      <trkpt lat="48.78585" lon="2.12676">
        <ele>211</ele>
        <time>2019-05-12T13:54:09.000Z</time>
      </trkpt>
      <trkpt lat="48.78588" lon="2.12666">
        <ele>211</ele>
        <time>2019-05-12T13:54:12.000Z</time>
      </trkpt>
      <trkpt lat="48.7859" lon="2.12657">
        <ele>211</ele>
        <time>2019-05-12T13:54:19.000Z</time>
      </trkpt>
      <trkpt lat="48.78593" lon="2.12648">
        <ele>211</ele>
        <time>2019-05-12T13:54:24.000Z</time>
      </trkpt>
      <trkpt lat="48.78601" lon="2.12628">
        <ele>211</ele>
        <time>2019-05-12T13:54:31.000Z</time>
      </trkpt>
      <trkpt lat="48.78607" lon="2.12617">
        <ele>211</ele>
        <time>2019-05-12T13:54:40.000Z</time>
      </trkpt>
      <trkpt lat="48.78615" lon="2.12602">
        <ele>212</ele>
        <time>2019-05-12T13:54:48.000Z</time>
      </trkpt>
      <trkpt lat="48.78621" lon="2.12588">
        <ele>212</ele>
        <time>2019-05-12T13:55:01.000Z</time>
      </trkpt>
      <trkpt lat="48.78629" lon="2.12577">
        <ele>212</ele>
        <time>2019-05-12T13:55:11.000Z</time>
      </trkpt>
      <trkpt lat="48.78637" lon="2.12564">
        <ele>212</ele>
        <time>2019-05-12T13:55:24.000Z</time>
      </trkpt>
      <trkpt lat="48.78644" lon="2.12555">
        <ele>213</ele>
        <time>2019-05-12T13:55:34.000Z</time>
      </trkpt>
      <trkpt lat="48.78649" lon="2.12551">
        <ele>213</ele>
        <time>2019-05-12T13:55:42.000Z</time>
      </trkpt>
      <trkpt lat="48.7865" lon="2.12551">
        <ele>213</ele>
        <time>2019-05-12T13:55:45.000Z</time>
      </trkpt>
      <trkpt lat="48.78651" lon="2.12551">
        <ele>213</ele>
        <time>2019-05-12T13:55:46.000Z</time>
      </trkpt>
      <trkpt lat="48.78665" lon="2.12546">
        <ele>213</ele>
        <time>2019-05-12T13:55:58.000Z</time>
      </trkpt>
      <trkpt lat="48.78669" lon="2.12543">
        <ele>213</ele>
        <time>2019-05-12T13:56:05.000Z</time>
      </trkpt>
      <trkpt lat="48.78671" lon="2.12542">
        <ele>213</ele>
        <time>2019-05-12T13:56:07.000Z</time>
      </trkpt>
      <trkpt lat="48.78678" lon="2.12537">
        <ele>213</ele>
        <time>2019-05-12T13:56:09.000Z</time>
      </trkpt>
      <trkpt lat="48.78689" lon="2.12531">
        <ele>213</ele>
        <time>2019-05-12T13:56:21.000Z</time>
      </trkpt>
      <trkpt lat="48.7869" lon="2.12531">
        <ele>213</ele>
        <time>2019-05-12T13:56:27.000Z</time>
      </trkpt>
      <trkpt lat="48.78691" lon="2.12531">
        <ele>213</ele>
        <time>2019-05-12T13:56:28.000Z</time>
      </trkpt>
      <trkpt lat="48.78692" lon="2.12531">
        <ele>213</ele>
        <time>2019-05-12T13:56:30.000Z</time>
      </trkpt>
      <trkpt lat="48.787" lon="2.12531">
        <ele>213</ele>
        <time>2019-05-12T13:56:33.000Z</time>
      </trkpt>
      <trkpt lat="48.78711" lon="2.12531">
        <ele>213</ele>
        <time>2019-05-12T13:56:39.000Z</time>
      </trkpt>
      <trkpt lat="48.78711" lon="2.12531">
        <ele>213</ele>
        <time>2019-05-12T13:56:41.000Z</time>
      </trkpt>
      <trkpt lat="48.78712" lon="2.12531">
        <ele>213</ele>
        <time>2019-05-12T13:56:45.000Z</time>
      </trkpt>
      <trkpt lat="48.78712" lon="2.12531">
        <ele>213</ele>
        <time>2019-05-12T13:56:46.000Z</time>
      </trkpt>
      <trkpt lat="48.78724" lon="2.12531">
        <ele>213</ele>
        <time>2019-05-12T13:56:57.000Z</time>
      </trkpt>
      <trkpt lat="48.78727" lon="2.12531">
        <ele>213</ele>
        <time>2019-05-12T13:57:02.000Z</time>
      </trkpt>
      <trkpt lat="48.7873" lon="2.12533">
        <ele>213</ele>
        <time>2019-05-12T13:57:07.000Z</time>
      </trkpt>
      <trkpt lat="48.78732" lon="2.12534">
        <ele>213</ele>
        <time>2019-05-12T13:57:08.000Z</time>
      </trkpt>
      <trkpt lat="48.78737" lon="2.12536">
        <ele>213</ele>
        <time>2019-05-12T13:57:15.000Z</time>
      </trkpt>
      <trkpt lat="48.78743" lon="2.12539">
        <ele>213</ele>
        <time>2019-05-12T13:57:21.000Z</time>
      </trkpt>
      <trkpt lat="48.78745" lon="2.1254">
        <ele>213</ele>
        <time>2019-05-12T13:57:25.000Z</time>
      </trkpt>
      <trkpt lat="48.78751" lon="2.12542">
        <ele>213</ele>
        <time>2019-05-12T13:57:28.000Z</time>
      </trkpt>
      <trkpt lat="48.78759" lon="2.12544">
        <ele>213</ele>
        <time>2019-05-12T13:57:32.000Z</time>
      </trkpt>
      <trkpt lat="48.78761" lon="2.12544">
        <ele>213</ele>
        <time>2019-05-12T13:57:37.000Z</time>
      </trkpt>
      <trkpt lat="48.78764" lon="2.12545">
        <ele>213</ele>
        <time>2019-05-12T13:57:42.000Z</time>
      </trkpt>
      <trkpt lat="48.78767" lon="2.12545">
        <ele>213</ele>
        <time>2019-05-12T13:57:43.000Z</time>
      </trkpt>
      <trkpt lat="48.7877" lon="2.12546">
        <ele>213</ele>
        <time>2019-05-12T13:57:45.000Z</time>
      </trkpt>
      <trkpt lat="48.78775" lon="2.12547">
        <ele>213</ele>
        <time>2019-05-12T13:57:49.000Z</time>
      </trkpt>
      <trkpt lat="48.78779" lon="2.12548">
        <ele>213</ele>
        <time>2019-05-12T13:57:52.000Z</time>
      </trkpt>
      <trkpt lat="48.78781" lon="2.12549">
        <ele>213</ele>
        <time>2019-05-12T13:57:53.000Z</time>
      </trkpt>
      <trkpt lat="48.78785" lon="2.1255">
        <ele>213</ele>
        <time>2019-05-12T13:57:56.000Z</time>
      </trkpt>
      <trkpt lat="48.78789" lon="2.12551">
        <ele>213</ele>
        <time>2019-05-12T13:57:58.000Z</time>
      </trkpt>
      <trkpt lat="48.78795" lon="2.12551">
        <ele>213</ele>
        <time>2019-05-12T13:58:01.000Z</time>
      </trkpt>
      <trkpt lat="48.788" lon="2.12551">
        <ele>213</ele>
        <time>2019-05-12T13:58:04.000Z</time>
      </trkpt>
      <trkpt lat="48.78804" lon="2.12551">
        <ele>213</ele>
        <time>2019-05-12T13:58:06.000Z</time>
      </trkpt>
      <trkpt lat="48.78812" lon="2.12551">
        <ele>213</ele>
        <time>2019-05-12T13:58:09.000Z</time>
      </trkpt>
      <trkpt lat="48.78815" lon="2.12551">
        <ele>213</ele>
        <time>2019-05-12T13:58:12.000Z</time>
      </trkpt>
      <trkpt lat="48.78816" lon="2.12551">
        <ele>213</ele>
        <time>2019-05-12T13:58:16.000Z</time>
      </trkpt>
      <trkpt lat="48.78827" lon="2.12549">
        <ele>213</ele>
        <time>2019-05-12T13:58:19.000Z</time>
      </trkpt>
      <trkpt lat="48.78832" lon="2.12548">
        <ele>213</ele>
        <time>2019-05-12T13:58:21.000Z</time>
      </trkpt>
      <trkpt lat="48.78842" lon="2.12546">
        <ele>213</ele>
        <time>2019-05-12T13:58:26.000Z</time>
      </trkpt>
      <trkpt lat="48.78844" lon="2.12547">
        <ele>213</ele>
        <time>2019-05-12T13:58:31.000Z</time>
      </trkpt>
      <trkpt lat="48.78853" lon="2.12549">
        <ele>213</ele>
        <time>2019-05-12T13:58:35.000Z</time>
      </trkpt>
      <trkpt lat="48.78857" lon="2.1255">
        <ele>213</ele>
        <time>2019-05-12T13:58:37.000Z</time>
      </trkpt>
      <trkpt lat="48.78862" lon="2.1255">
        <ele>213</ele>
        <time>2019-05-12T13:58:39.000Z</time>
      </trkpt>
      <trkpt lat="48.78869" lon="2.12549">
        <ele>213</ele>
        <time>2019-05-12T13:58:41.000Z</time>
      </trkpt>
      <trkpt lat="48.78873" lon="2.12546">
        <ele>213</ele>
        <time>2019-05-12T13:58:43.000Z</time>
      </trkpt>
      <trkpt lat="48.78878" lon="2.1254">
        <ele>213</ele>
        <time>2019-05-12T13:58:48.000Z</time>
      </trkpt>
      <trkpt lat="48.78879" lon="2.12544">
        <ele>213</ele>
        <time>2019-05-12T13:58:54.000Z</time>
      </trkpt>
      <trkpt lat="48.78881" lon="2.12549">
        <ele>213</ele>
        <time>2019-05-12T13:59:01.000Z</time>
      </trkpt>
      <trkpt lat="48.78883" lon="2.12555">
        <ele>213</ele>
        <time>2019-05-12T13:59:07.000Z</time>
      </trkpt>
      <trkpt lat="48.78885" lon="2.12562">
        <ele>213</ele>
        <time>2019-05-12T13:59:14.000Z</time>
      </trkpt>
      <trkpt lat="48.78887" lon="2.12566">
        <ele>213</ele>
        <time>2019-05-12T13:59:17.000Z</time>
      </trkpt>
      <trkpt lat="48.7889" lon="2.12571">
        <ele>213</ele>
        <time>2019-05-12T13:59:20.000Z</time>
      </trkpt>
      <trkpt lat="48.78892" lon="2.12575">
        <ele>213</ele>
        <time>2019-05-12T13:59:23.000Z</time>
      </trkpt>
      <trkpt lat="48.78895" lon="2.1258">
        <ele>213</ele>
        <time>2019-05-12T13:59:27.000Z</time>
      </trkpt>
      <trkpt lat="48.78898" lon="2.1258">
        <ele>213</ele>
        <time>2019-05-12T13:59:30.000Z</time>
      </trkpt>
      <trkpt lat="48.78901" lon="2.12578">
        <ele>213</ele>
        <time>2019-05-12T13:59:34.000Z</time>
      </trkpt>
      <trkpt lat="48.78904" lon="2.12575">
        <ele>213</ele>
        <time>2019-05-12T13:59:38.000Z</time>
      </trkpt>
      <trkpt lat="48.78906" lon="2.12572">
        <ele>213</ele>
        <time>2019-05-12T13:59:42.000Z</time>
      </trkpt>
      <trkpt lat="48.78909" lon="2.12568">
        <ele>213</ele>
        <time>2019-05-12T13:59:44.000Z</time>
      </trkpt>
      <trkpt lat="48.78912" lon="2.12564">
        <ele>213</ele>
        <time>2019-05-12T13:59:47.000Z</time>
      </trkpt>
      <trkpt lat="48.78914" lon="2.1256">
        <ele>213</ele>
        <time>2019-05-12T13:59:49.000Z</time>
      </trkpt>
      <trkpt lat="48.78917" lon="2.12555">
        <ele>213</ele>
        <time>2019-05-12T13:59:52.000Z</time>
      </trkpt>
      <trkpt lat="48.7892" lon="2.12551">
        <ele>213</ele>
        <time>2019-05-12T13:59:55.000Z</time>
      </trkpt>
      <trkpt lat="48.78923" lon="2.12547">
        <ele>213</ele>
        <time>2019-05-12T13:59:59.000Z</time>
      </trkpt>
      <trkpt lat="48.78926" lon="2.12543">
        <ele>213</ele>
        <time>2019-05-12T14:00:03.000Z</time>
      </trkpt>
      <trkpt lat="48.78929" lon="2.12539">
        <ele>213</ele>
        <time>2019-05-12T14:00:07.000Z</time>
      </trkpt>
      <trkpt lat="48.78932" lon="2.12535">
        <ele>213</ele>
        <time>2019-05-12T14:00:10.000Z</time>
      </trkpt>
      <trkpt lat="48.78936" lon="2.12532">
        <ele>213</ele>
        <time>2019-05-12T14:00:14.000Z</time>
      </trkpt>
      <trkpt lat="48.78939" lon="2.12528">
        <ele>213</ele>
        <time>2019-05-12T14:00:17.000Z</time>
      </trkpt>
      <trkpt lat="48.78942" lon="2.12525">
        <ele>213</ele>
        <time>2019-05-12T14:00:21.000Z</time>
      </trkpt>
      <trkpt lat="48.78946" lon="2.12521">
        <ele>213</ele>
        <time>2019-05-12T14:00:25.000Z</time>
      </trkpt>
      <trkpt lat="48.78949" lon="2.12518">
        <ele>213</ele>
        <time>2019-05-12T14:00:30.000Z</time>
      </trkpt>
      <trkpt lat="48.78952" lon="2.12515">
        <ele>213</ele>
        <time>2019-05-12T14:00:34.000Z</time>
      </trkpt>
      <trkpt lat="48.78955" lon="2.12511">
        <ele>213</ele>
        <time>2019-05-12T14:00:39.000Z</time>
      </trkpt>
      <trkpt lat="48.78957" lon="2.12509">
        <ele>213</ele>
        <time>2019-05-12T14:00:50.000Z</time>
      </trkpt>
      <trkpt lat="48.7896" lon="2.12506">
        <ele>213</ele>
        <time>2019-05-12T14:01:02.000Z</time>
      </trkpt>
      <trkpt lat="48.78962" lon="2.12504">
        <ele>213</ele>
        <time>2019-05-12T14:01:13.000Z</time>
      </trkpt>
      <trkpt lat="48.78964" lon="2.12501">
        <ele>213</ele>
        <time>2019-05-12T14:01:25.000Z</time>
      </trkpt>
      <trkpt lat="48.78977" lon="2.12488">
        <ele>213</ele>
        <time>2019-05-12T14:01:27.000Z</time>
      </trkpt>
      <trkpt lat="48.78997" lon="2.12464">
        <ele>213</ele>
        <time>2019-05-12T14:01:29.000Z</time>
      </trkpt>
      <trkpt lat="48.79007" lon="2.12453">
        <ele>213</ele>
        <time>2019-05-12T14:01:31.000Z</time>
      </trkpt>
      <trkpt lat="48.79014" lon="2.12443">
        <ele>213</ele>
        <time>2019-05-12T14:01:34.000Z</time>
      </trkpt>
      <trkpt lat="48.79015" lon="2.12437">
        <ele>213</ele>
        <time>2019-05-12T14:01:38.000Z</time>
      </trkpt>
      <trkpt lat="48.79016" lon="2.12431">
        <ele>213</ele>
        <time>2019-05-12T14:01:43.000Z</time>
      </trkpt>
      <trkpt lat="48.79018" lon="2.12429">
        <ele>213</ele>
        <time>2019-05-12T14:01:47.000Z</time>
      </trkpt>
      <trkpt lat="48.7902" lon="2.12428">
        <ele>212</ele>
        <time>2019-05-12T14:01:51.000Z</time>
      </trkpt>
      <trkpt lat="48.79022" lon="2.12427">
        <ele>212</ele>
        <time>2019-05-12T14:01:55.000Z</time>
      </trkpt>
      <trkpt lat="48.79025" lon="2.12426">
        <ele>212</ele>
        <time>2019-05-12T14:02:00.000Z</time>
      </trkpt>
      <trkpt lat="48.79026" lon="2.12425">
        <ele>212</ele>
        <time>2019-05-12T14:02:01.000Z</time>
      </trkpt>
      <trkpt lat="48.79028" lon="2.12424">
        <ele>212</ele>
        <time>2019-05-12T14:02:03.000Z</time>
      </trkpt>
      <trkpt lat="48.79029" lon="2.12423">
        <ele>212</ele>
        <time>2019-05-12T14:02:04.000Z</time>
      </trkpt>
      <trkpt lat="48.7903" lon="2.12422">
        <ele>212</ele>
        <time>2019-05-12T14:02:06.000Z</time>
      </trkpt>
      <trkpt lat="48.79031" lon="2.12421">
        <ele>212</ele>
        <time>2019-05-12T14:02:07.000Z</time>
      </trkpt>
      <trkpt lat="48.79033" lon="2.12421">
        <ele>212</ele>
        <time>2019-05-12T14:02:09.000Z</time>
      </trkpt>
      <trkpt lat="48.79033" lon="2.1242">
        <ele>212</ele>
        <time>2019-05-12T14:02:10.000Z</time>
      </trkpt>
      <trkpt lat="48.79034" lon="2.1242">
        <ele>212</ele>
        <time>2019-05-12T14:02:12.000Z</time>
      </trkpt>
      <trkpt lat="48.79034" lon="2.12419">
        <ele>212</ele>
        <time>2019-05-12T14:02:13.000Z</time>
      </trkpt>
      <trkpt lat="48.79035" lon="2.12419">
        <ele>212</ele>
        <time>2019-05-12T14:02:14.000Z</time>
      </trkpt>
      <trkpt lat="48.79035" lon="2.12418">
        <ele>212</ele>
        <time>2019-05-12T14:02:15.000Z</time>
      </trkpt>
      <trkpt lat="48.79035" lon="2.12418">
        <ele>212</ele>
        <time>2019-05-12T14:02:16.000Z</time>
      </trkpt>
      <trkpt lat="48.79036" lon="2.12417">
        <ele>212</ele>
        <time>2019-05-12T14:02:16.000Z</time>
      </trkpt>
      <trkpt lat="48.79038" lon="2.12415">
        <ele>212</ele>
        <time>2019-05-12T14:02:17.000Z</time>
      </trkpt>
      <trkpt lat="48.79039" lon="2.12414">
        <ele>212</ele>
        <time>2019-05-12T14:02:18.000Z</time>
      </trkpt>
      <trkpt lat="48.79041" lon="2.12412">
        <ele>212</ele>
        <time>2019-05-12T14:02:19.000Z</time>
      </trkpt>
      <trkpt lat="48.79042" lon="2.12412">
        <ele>212</ele>
        <time>2019-05-12T14:02:20.000Z</time>
      </trkpt>
      <trkpt lat="48.79042" lon="2.12411">
        <ele>212</ele>
        <time>2019-05-12T14:02:21.000Z</time>
      </trkpt>
      <trkpt lat="48.79042" lon="2.12411">
        <ele>212</ele>
        <time>2019-05-12T14:02:22.000Z</time>
      </trkpt>
      <trkpt lat="48.79042" lon="2.12411">
        <ele>212</ele>
        <time>2019-05-12T14:02:24.000Z</time>
      </trkpt>
      <trkpt lat="48.79043" lon="2.12411">
        <ele>212</ele>
        <time>2019-05-12T14:02:28.000Z</time>
      </trkpt>
      <trkpt lat="48.79048" lon="2.1241">
        <ele>212</ele>
        <time>2019-05-12T14:02:30.000Z</time>
      </trkpt>
      <trkpt lat="48.79057" lon="2.12409">
        <ele>212</ele>
        <time>2019-05-12T14:02:37.000Z</time>
      </trkpt>
      <trkpt lat="48.79064" lon="2.12412">
        <ele>212</ele>
        <time>2019-05-12T14:02:44.000Z</time>
      </trkpt>
      <trkpt lat="48.79067" lon="2.12412">
        <ele>212</ele>
        <time>2019-05-12T14:02:48.000Z</time>
      </trkpt>
      <trkpt lat="48.79068" lon="2.12412">
        <ele>212</ele>
        <time>2019-05-12T14:02:50.000Z</time>
      </trkpt>
      <trkpt lat="48.79079" lon="2.1241">
        <ele>212</ele>
        <time>2019-05-12T14:02:52.000Z</time>
      </trkpt>
      <trkpt lat="48.79093" lon="2.12413">
        <ele>212</ele>
        <time>2019-05-12T14:02:57.000Z</time>
      </trkpt>
      <trkpt lat="48.79105" lon="2.12414">
        <ele>212</ele>
        <time>2019-05-12T14:02:59.000Z</time>
      </trkpt>
      <trkpt lat="48.79116" lon="2.1242">
        <ele>212</ele>
        <time>2019-05-12T14:03:12.000Z</time>
      </trkpt>
      <trkpt lat="48.7912" lon="2.12423">
        <ele>212</ele>
        <time>2019-05-12T14:03:15.000Z</time>
      </trkpt>
      <trkpt lat="48.79129" lon="2.12431">
        <ele>212</ele>
        <time>2019-05-12T14:03:17.000Z</time>
      </trkpt>
      <trkpt lat="48.79141" lon="2.12445">
        <ele>211</ele>
        <time>2019-05-12T14:03:26.000Z</time>
      </trkpt>
      <trkpt lat="48.79152" lon="2.12461">
        <ele>210</ele>
        <time>2019-05-12T14:03:39.000Z</time>
      </trkpt>
      <trkpt lat="48.79159" lon="2.12468">
        <ele>209</ele>
        <time>2019-05-12T14:03:49.000Z</time>
      </trkpt>
      <trkpt lat="48.79165" lon="2.12473">
        <ele>208</ele>
        <time>2019-05-12T14:03:57.000Z</time>
      </trkpt>
      <trkpt lat="48.79176" lon="2.12486">
        <ele>207</ele>
        <time>2019-05-12T14:04:04.000Z</time>
      </trkpt>
      <trkpt lat="48.79179" lon="2.12497">
        <ele>205</ele>
        <time>2019-05-12T14:04:12.000Z</time>
      </trkpt>
      <trkpt lat="48.79181" lon="2.12509">
        <ele>204</ele>
        <time>2019-05-12T14:04:21.000Z</time>
      </trkpt>
      <trkpt lat="48.79181" lon="2.12513">
        <ele>203</ele>
        <time>2019-05-12T14:04:24.000Z</time>
      </trkpt>
      <trkpt lat="48.79182" lon="2.12518">
        <ele>203</ele>
        <time>2019-05-12T14:04:27.000Z</time>
      </trkpt>
      <trkpt lat="48.79182" lon="2.12522">
        <ele>202</ele>
        <time>2019-05-12T14:04:30.000Z</time>
      </trkpt>
      <trkpt lat="48.79182" lon="2.12525">
        <ele>202</ele>
        <time>2019-05-12T14:04:34.000Z</time>
      </trkpt>
      <trkpt lat="48.79182" lon="2.1253">
        <ele>201</ele>
        <time>2019-05-12T14:04:37.000Z</time>
      </trkpt>
      <trkpt lat="48.79183" lon="2.12535">
        <ele>201</ele>
        <time>2019-05-12T14:04:41.000Z</time>
      </trkpt>
      <trkpt lat="48.79184" lon="2.1254">
        <ele>200</ele>
        <time>2019-05-12T14:04:44.000Z</time>
      </trkpt>
      <trkpt lat="48.79185" lon="2.12546">
        <ele>200</ele>
        <time>2019-05-12T14:04:48.000Z</time>
      </trkpt>
      <trkpt lat="48.79186" lon="2.1255">
        <ele>199</ele>
        <time>2019-05-12T14:04:51.000Z</time>
      </trkpt>
      <trkpt lat="48.79186" lon="2.12555">
        <ele>199</ele>
        <time>2019-05-12T14:04:54.000Z</time>
      </trkpt>
      <trkpt lat="48.79187" lon="2.12559">
        <ele>199</ele>
        <time>2019-05-12T14:04:57.000Z</time>
      </trkpt>
      <trkpt lat="48.79187" lon="2.12564">
        <ele>198</ele>
        <time>2019-05-12T14:05:00.000Z</time>
      </trkpt>
      <trkpt lat="48.79188" lon="2.12566">
        <ele>198</ele>
        <time>2019-05-12T14:05:02.000Z</time>
      </trkpt>
      <trkpt lat="48.79189" lon="2.12568">
        <ele>198</ele>
        <time>2019-05-12T14:05:05.000Z</time>
      </trkpt>
      <trkpt lat="48.79189" lon="2.12569">
        <ele>197</ele>
        <time>2019-05-12T14:05:07.000Z</time>
      </trkpt>
      <trkpt lat="48.7919" lon="2.12569">
        <ele>197</ele>
        <time>2019-05-12T14:05:10.000Z</time>
      </trkpt>
      <trkpt lat="48.7919" lon="2.12571">
        <ele>197</ele>
        <time>2019-05-12T14:05:11.000Z</time>
      </trkpt>
      <trkpt lat="48.7919" lon="2.12572">
        <ele>197</ele>
        <time>2019-05-12T14:05:12.000Z</time>
      </trkpt>
      <trkpt lat="48.79191" lon="2.12573">
        <ele>197</ele>
        <time>2019-05-12T14:05:13.000Z</time>
      </trkpt>
      <trkpt lat="48.79192" lon="2.12575">
        <ele>197</ele>
        <time>2019-05-12T14:05:14.000Z</time>
      </trkpt>
      <trkpt lat="48.79195" lon="2.12587">
        <ele>196</ele>
        <time>2019-05-12T14:05:18.000Z</time>
      </trkpt>
      <trkpt lat="48.79196" lon="2.12591">
        <ele>196</ele>
        <time>2019-05-12T14:05:19.000Z</time>
      </trkpt>
      <trkpt lat="48.79195" lon="2.12593">
        <ele>196</ele>
        <time>2019-05-12T14:05:20.000Z</time>
      </trkpt>
      <trkpt lat="48.79195" lon="2.12598">
        <ele>196</ele>
        <time>2019-05-12T14:05:21.000Z</time>
      </trkpt>
      <trkpt lat="48.79196" lon="2.12603">
        <ele>196</ele>
        <time>2019-05-12T14:05:23.000Z</time>
      </trkpt>
      <trkpt lat="48.79197" lon="2.12609">
        <ele>196</ele>
        <time>2019-05-12T14:05:24.000Z</time>
      </trkpt>
      <trkpt lat="48.79198" lon="2.12615">
        <ele>196</ele>
        <time>2019-05-12T14:05:26.000Z</time>
      </trkpt>
      <trkpt lat="48.79198" lon="2.12617">
        <ele>195</ele>
        <time>2019-05-12T14:05:27.000Z</time>
      </trkpt>
      <trkpt lat="48.79198" lon="2.12619">
        <ele>195</ele>
        <time>2019-05-12T14:05:29.000Z</time>
      </trkpt>
      <trkpt lat="48.79199" lon="2.12619">
        <ele>195</ele>
        <time>2019-05-12T14:05:31.000Z</time>
      </trkpt>
      <trkpt lat="48.79199" lon="2.1262">
        <ele>195</ele>
        <time>2019-05-12T14:05:33.000Z</time>
      </trkpt>
      <trkpt lat="48.79199" lon="2.1262">
        <ele>195</ele>
        <time>2019-05-12T14:05:33.000Z</time>
      </trkpt>
      <trkpt lat="48.79199" lon="2.12621">
        <ele>195</ele>
        <time>2019-05-12T14:05:34.000Z</time>
      </trkpt>
      <trkpt lat="48.79199" lon="2.12621">
        <ele>195</ele>
        <time>2019-05-12T14:05:34.000Z</time>
      </trkpt>
      <trkpt lat="48.79199" lon="2.12622">
        <ele>195</ele>
        <time>2019-05-12T14:05:35.000Z</time>
      </trkpt>
      <trkpt lat="48.79198" lon="2.12624">
        <ele>195</ele>
        <time>2019-05-12T14:05:35.000Z</time>
      </trkpt>
      <trkpt lat="48.79198" lon="2.12626">
        <ele>195</ele>
        <time>2019-05-12T14:05:36.000Z</time>
      </trkpt>
      <trkpt lat="48.79198" lon="2.12629">
        <ele>194</ele>
        <time>2019-05-12T14:05:36.000Z</time>
      </trkpt>
      <trkpt lat="48.79197" lon="2.12632">
        <ele>194</ele>
        <time>2019-05-12T14:05:37.000Z</time>
      </trkpt>
      <trkpt lat="48.79197" lon="2.12635">
        <ele>194</ele>
        <time>2019-05-12T14:05:38.000Z</time>
      </trkpt>
      <trkpt lat="48.79198" lon="2.12639">
        <ele>194</ele>
        <time>2019-05-12T14:05:39.000Z</time>
      </trkpt>
      <trkpt lat="48.79198" lon="2.12643">
        <ele>194</ele>
        <time>2019-05-12T14:05:40.000Z</time>
      </trkpt>
      <trkpt lat="48.79198" lon="2.12647">
        <ele>194</ele>
        <time>2019-05-12T14:05:42.000Z</time>
      </trkpt>
      <trkpt lat="48.79199" lon="2.12667">
        <ele>193</ele>
        <time>2019-05-12T14:05:50.000Z</time>
      </trkpt>
      <trkpt lat="48.792" lon="2.1268">
        <ele>192</ele>
        <time>2019-05-12T14:06:00.000Z</time>
      </trkpt>
      <trkpt lat="48.79203" lon="2.12695">
        <ele>191</ele>
        <time>2019-05-12T14:06:09.000Z</time>
      </trkpt>
      <trkpt lat="48.79207" lon="2.12716">
        <ele>190</ele>
        <time>2019-05-12T14:06:19.000Z</time>
      </trkpt>
      <trkpt lat="48.79209" lon="2.12732">
        <ele>190</ele>
        <time>2019-05-12T14:06:26.000Z</time>
      </trkpt>
      <trkpt lat="48.79211" lon="2.1274">
        <ele>189</ele>
        <time>2019-05-12T14:06:30.000Z</time>
      </trkpt>
      <trkpt lat="48.79215" lon="2.12748">
        <ele>189</ele>
        <time>2019-05-12T14:06:35.000Z</time>
      </trkpt>
      <trkpt lat="48.79217" lon="2.12753">
        <ele>189</ele>
        <time>2019-05-12T14:06:37.000Z</time>
      </trkpt>
      <trkpt lat="48.79219" lon="2.12757">
        <ele>188</ele>
        <time>2019-05-12T14:06:40.000Z</time>
      </trkpt>
      <trkpt lat="48.79221" lon="2.12762">
        <ele>188</ele>
        <time>2019-05-12T14:06:42.000Z</time>
      </trkpt>
      <trkpt lat="48.79224" lon="2.12767">
        <ele>188</ele>
        <time>2019-05-12T14:06:45.000Z</time>
      </trkpt>
      <trkpt lat="48.79225" lon="2.12771">
        <ele>188</ele>
        <time>2019-05-12T14:06:48.000Z</time>
      </trkpt>
      <trkpt lat="48.79226" lon="2.12775">
        <ele>187</ele>
        <time>2019-05-12T14:06:52.000Z</time>
      </trkpt>
      <trkpt lat="48.79227" lon="2.1278">
        <ele>187</ele>
        <time>2019-05-12T14:06:55.000Z</time>
      </trkpt>
      <trkpt lat="48.79228" lon="2.12784">
        <ele>186</ele>
        <time>2019-05-12T14:06:59.000Z</time>
      </trkpt>
      <trkpt lat="48.79229" lon="2.12789">
        <ele>186</ele>
        <time>2019-05-12T14:07:02.000Z</time>
      </trkpt>
      <trkpt lat="48.79231" lon="2.12794">
        <ele>186</ele>
        <time>2019-05-12T14:07:06.000Z</time>
      </trkpt>
      <trkpt lat="48.79232" lon="2.128">
        <ele>185</ele>
        <time>2019-05-12T14:07:10.000Z</time>
      </trkpt>
      <trkpt lat="48.79233" lon="2.12806">
        <ele>185</ele>
        <time>2019-05-12T14:07:14.000Z</time>
      </trkpt>
      <trkpt lat="48.79234" lon="2.12811">
        <ele>185</ele>
        <time>2019-05-12T14:07:17.000Z</time>
      </trkpt>
      <trkpt lat="48.79235" lon="2.12816">
        <ele>185</ele>
        <time>2019-05-12T14:07:20.000Z</time>
      </trkpt>
      <trkpt lat="48.79236" lon="2.12821">
        <ele>184</ele>
        <time>2019-05-12T14:07:23.000Z</time>
      </trkpt>
      <trkpt lat="48.79237" lon="2.12826">
        <ele>184</ele>
        <time>2019-05-12T14:07:26.000Z</time>
      </trkpt>
      <trkpt lat="48.79242" lon="2.12833">
        <ele>184</ele>
        <time>2019-05-12T14:07:33.000Z</time>
      </trkpt>
      <trkpt lat="48.79246" lon="2.1284">
        <ele>183</ele>
        <time>2019-05-12T14:07:40.000Z</time>
      </trkpt>
      <trkpt lat="48.79252" lon="2.12844">
        <ele>183</ele>
        <time>2019-05-12T14:07:46.000Z</time>
      </trkpt>
      <trkpt lat="48.79258" lon="2.12848">
        <ele>183</ele>
        <time>2019-05-12T14:07:53.000Z</time>
      </trkpt>
      <trkpt lat="48.79261" lon="2.12849">
        <ele>183</ele>
        <time>2019-05-12T14:07:56.000Z</time>
      </trkpt>
      <trkpt lat="48.79265" lon="2.1285">
        <ele>183</ele>
        <time>2019-05-12T14:07:59.000Z</time>
      </trkpt>
      <trkpt lat="48.79269" lon="2.1285">
        <ele>182</ele>
        <time>2019-05-12T14:08:02.000Z</time>
      </trkpt>
      <trkpt lat="48.79274" lon="2.1285">
        <ele>182</ele>
        <time>2019-05-12T14:08:05.000Z</time>
      </trkpt>
      <trkpt lat="48.79277" lon="2.12852">
        <ele>182</ele>
        <time>2019-05-12T14:08:09.000Z</time>
      </trkpt>
      <trkpt lat="48.79282" lon="2.12854">
        <ele>182</ele>
        <time>2019-05-12T14:08:14.000Z</time>
      </trkpt>
      <trkpt lat="48.79285" lon="2.12857">
        <ele>182</ele>
        <time>2019-05-12T14:08:18.000Z</time>
      </trkpt>
      <trkpt lat="48.7929" lon="2.12859">
        <ele>182</ele>
        <time>2019-05-12T14:08:23.000Z</time>
      </trkpt>
      <trkpt lat="48.79292" lon="2.12864">
        <ele>182</ele>
        <time>2019-05-12T14:08:26.000Z</time>
      </trkpt>
      <trkpt lat="48.79295" lon="2.12869">
        <ele>182</ele>
        <time>2019-05-12T14:08:29.000Z</time>
      </trkpt>
      <trkpt lat="48.79297" lon="2.12875">
        <ele>181</ele>
        <time>2019-05-12T14:08:32.000Z</time>
      </trkpt>
      <trkpt lat="48.79298" lon="2.12882">
        <ele>181</ele>
        <time>2019-05-12T14:08:36.000Z</time>
      </trkpt>
      <trkpt lat="48.79303" lon="2.12889">
        <ele>181</ele>
        <time>2019-05-12T14:08:44.000Z</time>
      </trkpt>
      <trkpt lat="48.7931" lon="2.12895">
        <ele>181</ele>
        <time>2019-05-12T14:08:53.000Z</time>
      </trkpt>
      <trkpt lat="48.79313" lon="2.12898">
        <ele>181</ele>
        <time>2019-05-12T14:08:58.000Z</time>
      </trkpt>
      <trkpt lat="48.79316" lon="2.12902">
        <ele>181</ele>
        <time>2019-05-12T14:09:04.000Z</time>
      </trkpt>
      <trkpt lat="48.79319" lon="2.12905">
        <ele>181</ele>
        <time>2019-05-12T14:09:09.000Z</time>
      </trkpt>
      <trkpt lat="48.79322" lon="2.12909">
        <ele>180</ele>
        <time>2019-05-12T14:09:15.000Z</time>
      </trkpt>
      <trkpt lat="48.79326" lon="2.12912">
        <ele>180</ele>
        <time>2019-05-12T14:09:17.000Z</time>
      </trkpt>
      <trkpt lat="48.79329" lon="2.12914">
        <ele>180</ele>
        <time>2019-05-12T14:09:19.000Z</time>
      </trkpt>
      <trkpt lat="48.79332" lon="2.12917">
        <ele>180</ele>
        <time>2019-05-12T14:09:21.000Z</time>
      </trkpt>
      <trkpt lat="48.79335" lon="2.1292">
        <ele>180</ele>
        <time>2019-05-12T14:09:24.000Z</time>
      </trkpt>
      <trkpt lat="48.79338" lon="2.12922">
        <ele>180</ele>
        <time>2019-05-12T14:09:26.000Z</time>
      </trkpt>
      <trkpt lat="48.7934" lon="2.12923">
        <ele>180</ele>
        <time>2019-05-12T14:09:28.000Z</time>
      </trkpt>
      <trkpt lat="48.79342" lon="2.12924">
        <ele>180</ele>
        <time>2019-05-12T14:09:30.000Z</time>
      </trkpt>
      <trkpt lat="48.79343" lon="2.12926">
        <ele>180</ele>
        <time>2019-05-12T14:09:32.000Z</time>
      </trkpt>
      <trkpt lat="48.79345" lon="2.12926">
        <ele>180</ele>
        <time>2019-05-12T14:09:33.000Z</time>
      </trkpt>
      <trkpt lat="48.79345" lon="2.12927">
        <ele>180</ele>
        <time>2019-05-12T14:09:33.000Z</time>
      </trkpt>
      <trkpt lat="48.79345" lon="2.12927">
        <ele>180</ele>
        <time>2019-05-12T14:09:34.000Z</time>
      </trkpt>
      <trkpt lat="48.79345" lon="2.12927">
        <ele>180</ele>
        <time>2019-05-12T14:09:35.000Z</time>
      </trkpt>
      <trkpt lat="48.79346" lon="2.12927">
        <ele>180</ele>
        <time>2019-05-12T14:09:35.000Z</time>
      </trkpt>
      <trkpt lat="48.79348" lon="2.12928">
        <ele>180</ele>
        <time>2019-05-12T14:09:36.000Z</time>
      </trkpt>
      <trkpt lat="48.79349" lon="2.12929">
        <ele>180</ele>
        <time>2019-05-12T14:09:36.000Z</time>
      </trkpt>
      <trkpt lat="48.79351" lon="2.12929">
        <ele>180</ele>
        <time>2019-05-12T14:09:37.000Z</time>
      </trkpt>
      <trkpt lat="48.79359" lon="2.12931">
        <ele>180</ele>
        <time>2019-05-12T14:09:41.000Z</time>
      </trkpt>
      <trkpt lat="48.79363" lon="2.12932">
        <ele>180</ele>
        <time>2019-05-12T14:09:46.000Z</time>
      </trkpt>
      <trkpt lat="48.79376" lon="2.12939">
        <ele>180</ele>
        <time>2019-05-12T14:10:03.000Z</time>
      </trkpt>
      <trkpt lat="48.79385" lon="2.12951">
        <ele>180</ele>
        <time>2019-05-12T14:10:19.000Z</time>
      </trkpt>
      <trkpt lat="48.79392" lon="2.12963">
        <ele>180</ele>
        <time>2019-05-12T14:10:29.000Z</time>
      </trkpt>
      <trkpt lat="48.79398" lon="2.12973">
        <ele>180</ele>
        <time>2019-05-12T14:10:41.000Z</time>
      </trkpt>
      <trkpt lat="48.794" lon="2.12974">
        <ele>180</ele>
        <time>2019-05-12T14:10:51.000Z</time>
      </trkpt>
      <trkpt lat="48.79402" lon="2.12976">
        <ele>180</ele>
        <time>2019-05-12T14:10:52.000Z</time>
      </trkpt>
      <trkpt lat="48.79404" lon="2.12978">
        <ele>180</ele>
        <time>2019-05-12T14:10:55.000Z</time>
      </trkpt>
      <trkpt lat="48.79405" lon="2.12979">
        <ele>180</ele>
        <time>2019-05-12T14:10:58.000Z</time>
      </trkpt>
      <trkpt lat="48.79413" lon="2.12984">
        <ele>180</ele>
        <time>2019-05-12T14:11:02.000Z</time>
      </trkpt>
      <trkpt lat="48.79425" lon="2.12991">
        <ele>180</ele>
        <time>2019-05-12T14:11:07.000Z</time>
      </trkpt>
      <trkpt lat="48.7943" lon="2.12997">
        <ele>180</ele>
        <time>2019-05-12T14:11:13.000Z</time>
      </trkpt>
      <trkpt lat="48.79434" lon="2.13004">
        <ele>180</ele>
        <time>2019-05-12T14:11:20.000Z</time>
      </trkpt>
      <trkpt lat="48.79436" lon="2.13008">
        <ele>180</ele>
        <time>2019-05-12T14:11:22.000Z</time>
      </trkpt>
      <trkpt lat="48.79438" lon="2.13012">
        <ele>180</ele>
        <time>2019-05-12T14:11:25.000Z</time>
      </trkpt>
      <trkpt lat="48.79439" lon="2.13016">
        <ele>180</ele>
        <time>2019-05-12T14:11:28.000Z</time>
      </trkpt>
      <trkpt lat="48.79441" lon="2.1302">
        <ele>180</ele>
        <time>2019-05-12T14:11:31.000Z</time>
      </trkpt>
      <trkpt lat="48.79443" lon="2.13023">
        <ele>180</ele>
        <time>2019-05-12T14:11:37.000Z</time>
      </trkpt>
      <trkpt lat="48.79445" lon="2.13026">
        <ele>180</ele>
        <time>2019-05-12T14:11:44.000Z</time>
      </trkpt>
      <trkpt lat="48.79447" lon="2.13028">
        <ele>179</ele>
        <time>2019-05-12T14:11:50.000Z</time>
      </trkpt>
      <trkpt lat="48.79449" lon="2.1303">
        <ele>179</ele>
        <time>2019-05-12T14:11:57.000Z</time>
      </trkpt>
      <trkpt lat="48.79451" lon="2.13033">
        <ele>179</ele>
        <time>2019-05-12T14:12:02.000Z</time>
      </trkpt>
      <trkpt lat="48.79453" lon="2.13037">
        <ele>179</ele>
        <time>2019-05-12T14:12:07.000Z</time>
      </trkpt>
      <trkpt lat="48.79456" lon="2.1304">
        <ele>179</ele>
        <time>2019-05-12T14:12:12.000Z</time>
      </trkpt>
      <trkpt lat="48.79458" lon="2.13044">
        <ele>179</ele>
        <time>2019-05-12T14:12:18.000Z</time>
      </trkpt>
      <trkpt lat="48.79459" lon="2.13046">
        <ele>179</ele>
        <time>2019-05-12T14:12:22.000Z</time>
      </trkpt>
      <trkpt lat="48.79458" lon="2.13047">
        <ele>179</ele>
        <time>2019-05-12T14:12:27.000Z</time>
      </trkpt>
      <trkpt lat="48.79458" lon="2.13047">
        <ele>179</ele>
        <time>2019-05-12T14:12:27.000Z</time>
      </trkpt>
      <trkpt lat="48.79458" lon="2.13048">
        <ele>179</ele>
        <time>2019-05-12T14:12:27.000Z</time>
      </trkpt>
      <trkpt lat="48.79458" lon="2.13048">
        <ele>179</ele>
        <time>2019-05-12T14:12:27.000Z</time>
      </trkpt>
      <trkpt lat="48.79458" lon="2.13049">
        <ele>179</ele>
        <time>2019-05-12T14:12:28.000Z</time>
      </trkpt>
      <trkpt lat="48.79458" lon="2.13052">
        <ele>179</ele>
        <time>2019-05-12T14:12:30.000Z</time>
      </trkpt>
      <trkpt lat="48.79458" lon="2.13056">
        <ele>179</ele>
        <time>2019-05-12T14:12:33.000Z</time>
      </trkpt>
      <trkpt lat="48.79459" lon="2.13061">
        <ele>179</ele>
        <time>2019-05-12T14:12:35.000Z</time>
      </trkpt>
      <trkpt lat="48.79459" lon="2.13067">
        <ele>179</ele>
        <time>2019-05-12T14:12:38.000Z</time>
      </trkpt>
      <trkpt lat="48.79459" lon="2.1307">
        <ele>179</ele>
        <time>2019-05-12T14:12:40.000Z</time>
      </trkpt>
      <trkpt lat="48.79461" lon="2.13073">
        <ele>179</ele>
        <time>2019-05-12T14:12:43.000Z</time>
      </trkpt>
      <trkpt lat="48.79461" lon="2.13075">
        <ele>179</ele>
        <time>2019-05-12T14:12:45.000Z</time>
      </trkpt>
      <trkpt lat="48.79462" lon="2.13078">
        <ele>179</ele>
        <time>2019-05-12T14:12:48.000Z</time>
      </trkpt>
      <trkpt lat="48.79464" lon="2.13081">
        <ele>179</ele>
        <time>2019-05-12T14:12:49.000Z</time>
      </trkpt>
      <trkpt lat="48.79465" lon="2.13085">
        <ele>179</ele>
        <time>2019-05-12T14:12:51.000Z</time>
      </trkpt>
      <trkpt lat="48.79466" lon="2.13088">
        <ele>179</ele>
        <time>2019-05-12T14:12:52.000Z</time>
      </trkpt>
      <trkpt lat="48.79467" lon="2.13092">
        <ele>179</ele>
        <time>2019-05-12T14:12:54.000Z</time>
      </trkpt>
      <trkpt lat="48.79469" lon="2.13096">
        <ele>179</ele>
        <time>2019-05-12T14:12:56.000Z</time>
      </trkpt>
      <trkpt lat="48.7947" lon="2.13101">
        <ele>179</ele>
        <time>2019-05-12T14:12:59.000Z</time>
      </trkpt>
      <trkpt lat="48.79472" lon="2.13106">
        <ele>178</ele>
        <time>2019-05-12T14:13:02.000Z</time>
      </trkpt>
      <trkpt lat="48.79474" lon="2.13112">
        <ele>178</ele>
        <time>2019-05-12T14:13:05.000Z</time>
      </trkpt>
      <trkpt lat="48.79484" lon="2.13133">
        <ele>178</ele>
        <time>2019-05-12T14:13:22.000Z</time>
      </trkpt>
      <trkpt lat="48.79493" lon="2.1315">
        <ele>178</ele>
        <time>2019-05-12T14:13:37.000Z</time>
      </trkpt>
      <trkpt lat="48.795" lon="2.13165">
        <ele>178</ele>
        <time>2019-05-12T14:13:49.000Z</time>
      </trkpt>
      <trkpt lat="48.79511" lon="2.13184">
        <ele>178</ele>
        <time>2019-05-12T14:14:01.000Z</time>
      </trkpt>
      <trkpt lat="48.7952" lon="2.13201">
        <ele>178</ele>
        <time>2019-05-12T14:14:13.000Z</time>
      </trkpt>
      <trkpt lat="48.7953" lon="2.13221">
        <ele>177</ele>
        <time>2019-05-12T14:14:32.000Z</time>
      </trkpt>
      <trkpt lat="48.79537" lon="2.13243">
        <ele>177</ele>
        <time>2019-05-12T14:14:47.000Z</time>
      </trkpt>
      <trkpt lat="48.79548" lon="2.13261">
        <ele>177</ele>
        <time>2019-05-12T14:15:01.000Z</time>
      </trkpt>
      <trkpt lat="48.79557" lon="2.13282">
        <ele>176</ele>
        <time>2019-05-12T14:15:20.000Z</time>
      </trkpt>
      <trkpt lat="48.79561" lon="2.13296">
        <ele>176</ele>
        <time>2019-05-12T14:15:32.000Z</time>
      </trkpt>
      <trkpt lat="48.79561" lon="2.13297">
        <ele>176</ele>
        <time>2019-05-12T14:15:36.000Z</time>
      </trkpt>
      <trkpt lat="48.79561" lon="2.13297">
        <ele>176</ele>
        <time>2019-05-12T14:15:41.000Z</time>
      </trkpt>
      <trkpt lat="48.79561" lon="2.13296">
        <ele>176</ele>
        <time>2019-05-12T14:15:45.000Z</time>
      </trkpt>
      <trkpt lat="48.79561" lon="2.13295">
        <ele>176</ele>
        <time>2019-05-12T14:15:50.000Z</time>
      </trkpt>
      <trkpt lat="48.79561" lon="2.13295">
        <ele>176</ele>
        <time>2019-05-12T14:15:50.000Z</time>
      </trkpt>
      <trkpt lat="48.79561" lon="2.13295">
        <ele>176</ele>
        <time>2019-05-12T14:15:50.000Z</time>
      </trkpt>
      <trkpt lat="48.79562" lon="2.13295">
        <ele>176</ele>
        <time>2019-05-12T14:15:50.000Z</time>
      </trkpt>
      <trkpt lat="48.79562" lon="2.13295">
        <ele>176</ele>
        <time>2019-05-12T14:15:51.000Z</time>
      </trkpt>
      <trkpt lat="48.79562" lon="2.13295">
        <ele>176</ele>
        <time>2019-05-12T14:15:51.000Z</time>
      </trkpt>
      <trkpt lat="48.79562" lon="2.13295">
        <ele>176</ele>
        <time>2019-05-12T14:15:51.000Z</time>
      </trkpt>
      <trkpt lat="48.79562" lon="2.13295">
        <ele>176</ele>
        <time>2019-05-12T14:15:51.000Z</time>
      </trkpt>
      <trkpt lat="48.79562" lon="2.13295">
        <ele>176</ele>
        <time>2019-05-12T14:15:52.000Z</time>
      </trkpt>
      <trkpt lat="48.79563" lon="2.13294">
        <ele>176</ele>
        <time>2019-05-12T14:16:16.000Z</time>
      </trkpt>
      <trkpt lat="48.79564" lon="2.13294">
        <ele>176</ele>
        <time>2019-05-12T14:16:40.000Z</time>
      </trkpt>
      <trkpt lat="48.79565" lon="2.13294">
        <ele>176</ele>
        <time>2019-05-12T14:17:04.000Z</time>
      </trkpt>
      <trkpt lat="48.79567" lon="2.13293">
        <ele>176</ele>
        <time>2019-05-12T14:17:28.000Z</time>
      </trkpt>
      <trkpt lat="48.79568" lon="2.13293">
        <ele>176</ele>
        <time>2019-05-12T14:17:28.000Z</time>
      </trkpt>
      <trkpt lat="48.79569" lon="2.13293">
        <ele>176</ele>
        <time>2019-05-12T14:17:28.000Z</time>
      </trkpt>
      <trkpt lat="48.7957" lon="2.13293">
        <ele>176</ele>
        <time>2019-05-12T14:17:28.000Z</time>
      </trkpt>
      <trkpt lat="48.79571" lon="2.13292">
        <ele>176</ele>
        <time>2019-05-12T14:17:29.000Z</time>
      </trkpt>
      <trkpt lat="48.79572" lon="2.13292">
        <ele>176</ele>
        <time>2019-05-12T14:17:29.000Z</time>
      </trkpt>
      <trkpt lat="48.79573" lon="2.13292">
        <ele>176</ele>
        <time>2019-05-12T14:17:30.000Z</time>
      </trkpt>
      <trkpt lat="48.79575" lon="2.13292">
        <ele>176</ele>
        <time>2019-05-12T14:17:30.000Z</time>
      </trkpt>
      <trkpt lat="48.79576" lon="2.13292">
        <ele>176</ele>
        <time>2019-05-12T14:17:31.000Z</time>
      </trkpt>
      <trkpt lat="48.79582" lon="2.1329">
        <ele>176</ele>
        <time>2019-05-12T14:17:33.000Z</time>
      </trkpt>
      <trkpt lat="48.79585" lon="2.13289">
        <ele>176</ele>
        <time>2019-05-12T14:17:35.000Z</time>
      </trkpt>
      <trkpt lat="48.79585" lon="2.13289">
        <ele>176</ele>
        <time>2019-05-12T14:17:38.000Z</time>
      </trkpt>
      <trkpt lat="48.79585" lon="2.1329">
        <ele>176</ele>
        <time>2019-05-12T14:17:41.000Z</time>
      </trkpt>
      <trkpt lat="48.79585" lon="2.1329">
        <ele>176</ele>
        <time>2019-05-12T14:17:44.000Z</time>
      </trkpt>
      <trkpt lat="48.79585" lon="2.1329">
        <ele>176</ele>
        <time>2019-05-12T14:17:47.000Z</time>
      </trkpt>
      <trkpt lat="48.79586" lon="2.13291">
        <ele>176</ele>
        <time>2019-05-12T14:17:47.000Z</time>
      </trkpt>
      <trkpt lat="48.79586" lon="2.13291">
        <ele>176</ele>
        <time>2019-05-12T14:17:47.000Z</time>
      </trkpt>
      <trkpt lat="48.79586" lon="2.13291">
        <ele>176</ele>
        <time>2019-05-12T14:17:47.000Z</time>
      </trkpt>
      <trkpt lat="48.79586" lon="2.13291">
        <ele>176</ele>
        <time>2019-05-12T14:17:48.000Z</time>
      </trkpt>
      <trkpt lat="48.79587" lon="2.13293">
        <ele>176</ele>
        <time>2019-05-12T14:17:50.000Z</time>
      </trkpt>
      <trkpt lat="48.79588" lon="2.13294">
        <ele>176</ele>
        <time>2019-05-12T14:17:52.000Z</time>
      </trkpt>
      <trkpt lat="48.7959" lon="2.13297">
        <ele>176</ele>
        <time>2019-05-12T14:17:54.000Z</time>
      </trkpt>
      <trkpt lat="48.79591" lon="2.13299">
        <ele>176</ele>
        <time>2019-05-12T14:17:56.000Z</time>
      </trkpt>
      <trkpt lat="48.79591" lon="2.13301">
        <ele>176</ele>
        <time>2019-05-12T14:17:58.000Z</time>
      </trkpt>
      <trkpt lat="48.7959" lon="2.13303">
        <ele>176</ele>
        <time>2019-05-12T14:18:01.000Z</time>
      </trkpt>
      <trkpt lat="48.7959" lon="2.13304">
        <ele>176</ele>
        <time>2019-05-12T14:18:04.000Z</time>
      </trkpt>
      <trkpt lat="48.79588" lon="2.13306">
        <ele>175</ele>
        <time>2019-05-12T14:18:07.000Z</time>
      </trkpt>
      <trkpt lat="48.79588" lon="2.13307">
        <ele>175</ele>
        <time>2019-05-12T14:18:16.000Z</time>
      </trkpt>
      <trkpt lat="48.79588" lon="2.13308">
        <ele>175</ele>
        <time>2019-05-12T14:18:26.000Z</time>
      </trkpt>
      <trkpt lat="48.79588" lon="2.13308">
        <ele>175</ele>
        <time>2019-05-12T14:18:36.000Z</time>
      </trkpt>
      <trkpt lat="48.79588" lon="2.13308">
        <ele>175</ele>
        <time>2019-05-12T14:18:46.000Z</time>
      </trkpt>
      <trkpt lat="48.79588" lon="2.13309">
        <ele>175</ele>
        <time>2019-05-12T14:18:46.000Z</time>
      </trkpt>
      <trkpt lat="48.79588" lon="2.13309">
        <ele>175</ele>
        <time>2019-05-12T14:18:46.000Z</time>
      </trkpt>
      <trkpt lat="48.79588" lon="2.1331">
        <ele>175</ele>
        <time>2019-05-12T14:18:46.000Z</time>
      </trkpt>
      <trkpt lat="48.79588" lon="2.1331">
        <ele>175</ele>
        <time>2019-05-12T14:18:47.000Z</time>
      </trkpt>
      <trkpt lat="48.79588" lon="2.13312">
        <ele>175</ele>
        <time>2019-05-12T14:18:48.000Z</time>
      </trkpt>
      <trkpt lat="48.79588" lon="2.13313">
        <ele>175</ele>
        <time>2019-05-12T14:18:50.000Z</time>
      </trkpt>
      <trkpt lat="48.79588" lon="2.13315">
        <ele>175</ele>
        <time>2019-05-12T14:18:51.000Z</time>
      </trkpt>
      <trkpt lat="48.79588" lon="2.13317">
        <ele>175</ele>
        <time>2019-05-12T14:18:53.000Z</time>
      </trkpt>
      <trkpt lat="48.79589" lon="2.13321">
        <ele>175</ele>
        <time>2019-05-12T14:18:54.000Z</time>
      </trkpt>
      <trkpt lat="48.7959" lon="2.13326">
        <ele>175</ele>
        <time>2019-05-12T14:18:56.000Z</time>
      </trkpt>
      <trkpt lat="48.79591" lon="2.13331">
        <ele>175</ele>
        <time>2019-05-12T14:18:57.000Z</time>
      </trkpt>
      <trkpt lat="48.79593" lon="2.13337">
        <ele>175</ele>
        <time>2019-05-12T14:18:59.000Z</time>
      </trkpt>
      <trkpt lat="48.79594" lon="2.13341">
        <ele>175</ele>
        <time>2019-05-12T14:19:01.000Z</time>
      </trkpt>
      <trkpt lat="48.79595" lon="2.13346">
        <ele>175</ele>
        <time>2019-05-12T14:19:04.000Z</time>
      </trkpt>
      <trkpt lat="48.79597" lon="2.13351">
        <ele>175</ele>
        <time>2019-05-12T14:19:07.000Z</time>
      </trkpt>
      <trkpt lat="48.79598" lon="2.13355">
        <ele>175</ele>
        <time>2019-05-12T14:19:10.000Z</time>
      </trkpt>
      <trkpt lat="48.79604" lon="2.13369">
        <ele>175</ele>
        <time>2019-05-12T14:19:24.000Z</time>
      </trkpt>
      <trkpt lat="48.79613" lon="2.13387">
        <ele>175</ele>
        <time>2019-05-12T14:19:36.000Z</time>
      </trkpt>
      <trkpt lat="48.7962" lon="2.13406">
        <ele>175</ele>
        <time>2019-05-12T14:19:53.000Z</time>
      </trkpt>
      <trkpt lat="48.79632" lon="2.13417">
        <ele>174</ele>
        <time>2019-05-12T14:20:07.000Z</time>
      </trkpt>
      <trkpt lat="48.79641" lon="2.1343">
        <ele>174</ele>
        <time>2019-05-12T14:20:17.000Z</time>
      </trkpt>
      <trkpt lat="48.79643" lon="2.13436">
        <ele>174</ele>
        <time>2019-05-12T14:20:21.000Z</time>
      </trkpt>
      <trkpt lat="48.79642" lon="2.13436">
        <ele>174</ele>
        <time>2019-05-12T14:20:30.000Z</time>
      </trkpt>
      <trkpt lat="48.79641" lon="2.13435">
        <ele>174</ele>
        <time>2019-05-12T14:20:40.000Z</time>
      </trkpt>
      <trkpt lat="48.79641" lon="2.13434">
        <ele>174</ele>
        <time>2019-05-12T14:20:50.000Z</time>
      </trkpt>
      <trkpt lat="48.79639" lon="2.13433">
        <ele>174</ele>
        <time>2019-05-12T14:21:00.000Z</time>
      </trkpt>
      <trkpt lat="48.79639" lon="2.13433">
        <ele>174</ele>
        <time>2019-05-12T14:21:00.000Z</time>
      </trkpt>
      <trkpt lat="48.79638" lon="2.13432">
        <ele>174</ele>
        <time>2019-05-12T14:21:00.000Z</time>
      </trkpt>
      <trkpt lat="48.79638" lon="2.13432">
        <ele>174</ele>
        <time>2019-05-12T14:21:00.000Z</time>
      </trkpt>
      <trkpt lat="48.79638" lon="2.13432">
        <ele>174</ele>
        <time>2019-05-12T14:21:01.000Z</time>
      </trkpt>
      <trkpt lat="48.79636" lon="2.1343">
        <ele>174</ele>
        <time>2019-05-12T14:21:03.000Z</time>
      </trkpt>
      <trkpt lat="48.79635" lon="2.13429">
        <ele>174</ele>
        <time>2019-05-12T14:21:05.000Z</time>
      </trkpt>
      <trkpt lat="48.79633" lon="2.13427">
        <ele>174</ele>
        <time>2019-05-12T14:21:07.000Z</time>
      </trkpt>
      <trkpt lat="48.79631" lon="2.13426">
        <ele>174</ele>
        <time>2019-05-12T14:21:09.000Z</time>
      </trkpt>
      <trkpt lat="48.79629" lon="2.13424">
        <ele>174</ele>
        <time>2019-05-12T14:21:10.000Z</time>
      </trkpt>
      <trkpt lat="48.79628" lon="2.13423">
        <ele>174</ele>
        <time>2019-05-12T14:21:12.000Z</time>
      </trkpt>
      <trkpt lat="48.79626" lon="2.13421">
        <ele>174</ele>
        <time>2019-05-12T14:21:14.000Z</time>
      </trkpt>
      <trkpt lat="48.79624" lon="2.1342">
        <ele>174</ele>
        <time>2019-05-12T14:21:16.000Z</time>
      </trkpt>
      <trkpt lat="48.79623" lon="2.13418">
        <ele>174</ele>
        <time>2019-05-12T14:21:17.000Z</time>
      </trkpt>
      <trkpt lat="48.79621" lon="2.13416">
        <ele>174</ele>
        <time>2019-05-12T14:21:19.000Z</time>
      </trkpt>
      <trkpt lat="48.7962" lon="2.13414">
        <ele>174</ele>
        <time>2019-05-12T14:21:21.000Z</time>
      </trkpt>
      <trkpt lat="48.79618" lon="2.13413">
        <ele>174</ele>
        <time>2019-05-12T14:21:23.000Z</time>
      </trkpt>
      <trkpt lat="48.79617" lon="2.13411">
        <ele>174</ele>
        <time>2019-05-12T14:21:24.000Z</time>
      </trkpt>
      <trkpt lat="48.79615" lon="2.13409">
        <ele>174</ele>
        <time>2019-05-12T14:21:26.000Z</time>
      </trkpt>
      <trkpt lat="48.79614" lon="2.13408">
        <ele>174</ele>
        <time>2019-05-12T14:21:27.000Z</time>
      </trkpt>
      <trkpt lat="48.79612" lon="2.13407">
        <ele>174</ele>
        <time>2019-05-12T14:21:29.000Z</time>
      </trkpt>
      <trkpt lat="48.79609" lon="2.13408">
        <ele>174</ele>
        <time>2019-05-12T14:21:36.000Z</time>
      </trkpt>
      <trkpt lat="48.79606" lon="2.1341">
        <ele>174</ele>
        <time>2019-05-12T14:21:43.000Z</time>
      </trkpt>
      <trkpt lat="48.79602" lon="2.13413">
        <ele>174</ele>
        <time>2019-05-12T14:21:50.000Z</time>
      </trkpt>
      <trkpt lat="48.79598" lon="2.13417">
        <ele>174</ele>
        <time>2019-05-12T14:21:57.000Z</time>
      </trkpt>
      <trkpt lat="48.79596" lon="2.13419">
        <ele>174</ele>
        <time>2019-05-12T14:21:58.000Z</time>
      </trkpt>
      <trkpt lat="48.79595" lon="2.1342">
        <ele>174</ele>
        <time>2019-05-12T14:21:59.000Z</time>
      </trkpt>
      <trkpt lat="48.79594" lon="2.13421">
        <ele>174</ele>
        <time>2019-05-12T14:22:00.000Z</time>
      </trkpt>
      <trkpt lat="48.79594" lon="2.13423">
        <ele>174</ele>
        <time>2019-05-12T14:22:01.000Z</time>
      </trkpt>
      <trkpt lat="48.79593" lon="2.13424">
        <ele>174</ele>
        <time>2019-05-12T14:22:01.000Z</time>
      </trkpt>
      <trkpt lat="48.79593" lon="2.13425">
        <ele>174</ele>
        <time>2019-05-12T14:22:02.000Z</time>
      </trkpt>
      <trkpt lat="48.79592" lon="2.13426">
        <ele>174</ele>
        <time>2019-05-12T14:22:03.000Z</time>
      </trkpt>
      <trkpt lat="48.79591" lon="2.13427">
        <ele>174</ele>
        <time>2019-05-12T14:22:04.000Z</time>
      </trkpt>
      <trkpt lat="48.7959" lon="2.13428">
        <ele>175</ele>
        <time>2019-05-12T14:22:04.000Z</time>
      </trkpt>
      <trkpt lat="48.79588" lon="2.1343">
        <ele>175</ele>
        <time>2019-05-12T14:22:05.000Z</time>
      </trkpt>
      <trkpt lat="48.79586" lon="2.13432">
        <ele>175</ele>
        <time>2019-05-12T14:22:06.000Z</time>
      </trkpt>
      <trkpt lat="48.79584" lon="2.13434">
        <ele>175</ele>
        <time>2019-05-12T14:22:07.000Z</time>
      </trkpt>
      <trkpt lat="48.79582" lon="2.13435">
        <ele>175</ele>
        <time>2019-05-12T14:22:09.000Z</time>
      </trkpt>
      <trkpt lat="48.7958" lon="2.13436">
        <ele>175</ele>
        <time>2019-05-12T14:22:12.000Z</time>
      </trkpt>
      <trkpt lat="48.79578" lon="2.13438">
        <ele>175</ele>
        <time>2019-05-12T14:22:15.000Z</time>
      </trkpt>
      <trkpt lat="48.79576" lon="2.13439">
        <ele>175</ele>
        <time>2019-05-12T14:22:18.000Z</time>
      </trkpt>
      <trkpt lat="48.79575" lon="2.13441">
        <ele>175</ele>
        <time>2019-05-12T14:22:22.000Z</time>
      </trkpt>
      <trkpt lat="48.7957" lon="2.13447">
        <ele>175</ele>
        <time>2019-05-12T14:22:32.000Z</time>
      </trkpt>
      <trkpt lat="48.79571" lon="2.13446">
        <ele>175</ele>
        <time>2019-05-12T14:22:30.000Z</time>
      </trkpt>
      <trkpt lat="48.79572" lon="2.13444">
        <ele>175</ele>
        <time>2019-05-12T14:22:28.000Z</time>
      </trkpt>
      <trkpt lat="48.79572" lon="2.13444">
        <ele>175</ele>
        <time>2019-05-12T14:22:34.000Z</time>
      </trkpt>
    </trkseg>
  </trk>
</gpx>